Alstead Center, New Hampshire
Current Conditions -  °F | °C
As of 10:04 PM on Wednesday 26 Nov 2014 (Local Time) from KVSF Reporting Station
Light Snow Light Snow  
Wind Chill: -4°   Ceiling: 3400
Heat Index: -1°   Visibility: 4mi
Dew Point: -3°   Wind: 6mph
Humidity: 85%   Direction: 30°NNE
Pressure: 29.85"   Gusts: NA
Location:  43.1141°N, 72.3097°W
Report Text: KVSF 270304Z AUTO 03005KT 4SM -SN BR SCT020 OVC034 M01/M03 A2985 RMK AO2 P0000 T10061028
Loading
Personal Weather Stations






























Interactive Weather Map New forecast layout! Learn more

10-Day Weather Forecast

Advertisements
Track Severe Weather on mobile